Latest Coastal Weather Observations for Low Rocky Point

IDT60701

Issued at 7:45 am EST Wednesday 1 October 2014 (issued every 10 minutes, with the page automatically refreshed every 10 minutes)

About coastal observations | Map of coastal stations | Coastal observations for TAS | Marine services | Other Formats
Station Details ID: 097080 Name: LOW ROCKY POINT Lat: -42.98 Lon: 145.50 Height: 34.0 m
Data from the previous 72 hours. | See also: Recent months at Low Rocky Point
Date/Time
EST
Temp

°C
Wind Pressure Rain
since 9am
mm
Weather Cloud Vis
km
Sea
Height
m
Swell
Dir
 
Speed
knots
Gust
knots
hPa Trend Height
m
Period
s
Dir
01/07:36am 9.0 WSW 17 27 1014.8 - 13.8 - - - - - - -
01/07:30am 10.1 WSW 19 27 1014.7 - 13.8 - - - - - - -
01/07:00am 8.2 SW 11 17 1014.2 - 13.8 - - - - - - -
01/06:46am 9.0 SW 15 31 1013.9 - 13.6 - - - - - - -
01/06:30am 9.1 SW 16 22 1013.4 - 13.6 - - - - - - -
01/06:00am 9.0 SW 18 25 1013.0 - 13.6 - - - - - - -
01/05:30am 8.8 WSW 13 20 1012.0 - 13.6 - - - - - - -
01/05:05am 8.3 SW 15 25 1011.5 - 13.6 - - - - - - -
01/05:00am 8.1 SSW 18 25 1011.4 - 13.6 - - - - - - -
01/04:54am 9.7 WSW 18 31 1011.1 - 13.6 - - - - - - -
01/04:30am 9.2 WSW 18 25 1010.8 - 13.6 - - - - - - -
01/04:19am 8.9 W 25 30 1010.6 - 13.6 - - - - - - -
01/04:00am 9.5 SW 19 29 1010.1 - 13.6 - - - - - - -
01/03:57am 9.7 SW 18 28 1010.0 - 13.6 - - - - - - -
01/03:30am 9.4 SW 18 26 1009.6 - 13.6 - - - - - - -
01/03:00am 9.3 WSW 19 26 1009.1 - 13.6 - - - - - - -
01/02:30am 8.8 SW 23 30 1008.4 - 13.6 - - - - - - -
01/02:01am 8.0 W 24 34 1008.3 - 13.6 - - - - - - -
01/02:00am 8.2 W 25 34 1008.3 - 13.6 - - - - - - -
01/01:37am 8.4 WSW 15 25 1007.8 - 13.6 - - - - - - -
01/01:30am 8.3 WSW 14 21 1007.8 - 13.6 - - - - - - -
01/01:00am 8.9 WSW 22 30 1007.4 - 13.4 - - - - - - -
01/12:30am 9.1 WSW 24 31 1006.8 - 13.4 - - - - - - -
01/12:00am 9.1 W 22 28 1006.3 - 13.4 - - - - - - -
 
Date/Time
EST
Temp

°C
Wind Pressure Rain
since 9am
mm
Weather Cloud Vis
km
Sea
Height
m
Swell
Dir
 
Speed
knots
Gust
knots
hPa Trend Height
m
Period
s
Dir
30/11:31pm 9.1 WSW 21 31 1005.8 - 13.4 - - - - - - -
30/11:30pm 8.9 WSW 22 31 1005.8 - 13.4 - - - - - - -
30/11:00pm 9.0 WSW 23 30 1005.3 - 13.4 - - - - - - -
30/10:30pm 9.3 WSW 20 30 1004.7 - 13.4 - - - - - - -
30/10:28pm 9.5 WSW 20 30 1004.6 - 13.4 - - - - - - -
30/10:00pm 9.1 W 25 32 1004.3 - 13.4 - - - - - - -
30/09:30pm 9.2 WSW 22 32 1003.7 - 13.4 - - - - - - -
30/09:00pm 9.4 WSW 22 33 1003.0 - 13.4 - - - - - - -
30/08:51pm 9.4 WSW 22 33 1002.9 - 13.4 - - - - - - -
30/08:30pm 9.5 W 26 34 1002.6 - 13.4 - - - - - - -
30/08:08pm 9.6 WSW 21 31 1002.4 - 13.4 - - - - - - -
30/08:00pm 9.7 WSW 22 29 1002.3 - 13.4 - - - - - - -
30/07:30pm 9.6 WSW 21 28 1001.7 - 13.4 - - - - - - -
30/07:00pm 9.2 WSW 24 31 1000.7 - 13.4 - - - - - - -
30/06:30pm 9.4 W 23 31 1000.1 - 13.2 - - - - - - -
30/06:00pm 7.7 W 24 40 999.9 - 13.2 - - - - - - -
30/05:37pm 9.7 W 25 37 999.3 - 13.2 - - - - - - -
30/05:30pm 9.7 W 25 31 998.9 - 13.2 - - - - - - -
30/05:00pm 9.0 W 20 26 998.0 - 13.2 - - - - - - -
30/04:30pm 7.6 WSW 19 28 997.6 - 13.2 - - - - - - -
30/04:19pm 8.1 W 29 39 997.5 - 13.0 - - - - - - -
30/04:00pm 7.9 W 28 37 996.5 - 12.6 - - - - - - -
30/03:30pm 8.4 W 28 35 995.6 - 12.0 - - - - - - -
30/03:21pm 8.7 W 22 33 995.4 - 11.6 - - - - - - -
30/03:02pm 8.3 WSW 21 28 995.3 - 11.2 - - - - - - -
30/03:00pm 8.3 W 21 30 995.4 - 11.2 Rain - - - - - -
30/02:30pm 8.3 W 22 28 995.0 - 10.2 - - - - - - -
30/02:25pm 8.5 W 20 27 995.1 - 9.8 - - - - - - -
30/02:00pm 9.7 NW 19 24 994.8 - 8.4 - - - - - - -
30/01:30pm 9.3 NW 18 22 995.0 - 7.6 - - - - - - -
30/01:00pm 8.8 NW 15 19 994.8 - 6.8 - - - - - - -
30/12:30pm 9.2 WNW 23 29 995.0 - 6.2 - - - - - - -
30/12:00pm 9.1 WNW 22 27 995.5 - 4.8 Rain - - - - - -
30/11:30am 9.4 WNW 17 23 995.3 - 2.6 - - - - - - -
30/11:00am 9.7 WNW 17 20 995.9 - 1.6 - - - - - - -
30/10:30am 9.9 W 16 19 996.0 - 0.8 - - - - - - -
30/10:05am 10.2 WNW 22 34 996.5 - 0.6 - - - - - - -
30/10:00am 10.3 WNW 21 25 996.5 - 0.6 - - - - - - -
30/09:30am 10.3 WNW 20 24 996.6 - 0.2 - - - - - - -
30/09:00am 10.1 WNW 23 28 996.6 - 17.4 Recent precip. - - - - - -
30/08:33am 9.9 WNW 30 40 996.6 - 17.2 - - - - - - -
30/08:30am 10.2 WNW 33 40 996.6 - 16.6 - - - - - - -
30/08:21am 11.9 NNW 35 47 995.5 - 16.4 - - - - - - -
30/08:18am 11.9 NNW 35 41 995.5 - 16.4 - - - - - - -
30/08:00am 11.3 N 24 35 995.2 - 14.8 - - - - - - -
30/07:30am 11.4 N 27 39 995.6 - 12.6 - - - - - - -
30/07:00am 11.5 NNW 30 43 995.9 - 10.4 - - - - - - -
30/06:30am 11.4 NNW 27 43 996.4 - 7.8 - - - - - - -
30/06:00am 11.6 N 30 44 995.8 - 6.2 Rain - - - - - -
30/05:30am 12.9 NNW 28 43 996.2 - 5.4 - - - - - - -
30/05:00am 12.6 NNW 26 37 996.5 - 5.4 - - - - - - -
30/04:30am 12.3 N 24 36 997.0 - 5.4 - - - - - - -
30/04:00am 12.2 NNW 31 42 997.5 - 5.4 - - - - - - -
30/03:30am 12.2 NNW 29 40 998.1 - 5.4 - - - - - - -
30/03:00am 11.9 NNW 28 39 998.9 - 5.4 - - - - - - -
30/02:30am 12.1 NNW 26 38 999.3 - 5.4 - - - - - - -
30/02:00am 12.2 NNW 28 40 999.9 - 5.4 - - - - - - -
30/01:43am 12.5 NNW 29 39 1000.6 - 5.4 - - - - - - -
30/01:30am 12.5 NNW 31 38 1000.6 - 5.4 - - - - - - -
30/01:00am 12.0 NNW 33 43 1001.1 - 5.4 - - - - - - -
30/12:30am 11.6 NNW 31 41 1001.6 - 5.4 - - - - - - -
30/12:24am 11.4 NNW 29 40 1001.6 - 5.4 - - - - - - -
30/12:02am 10.9 NW 40 50 1001.7 - 5.2 - - - - - - -
30/12:00am 10.9 NW 40 48 1002.0 - 5.0 Rain - - - - - -
 
Date/Time
EST
Temp

°C
Wind Pressure Rain
since 9am
mm
Weather Cloud Vis
km
Sea
Height
m
Swell
Dir
 
Speed
knots
Gust
knots
hPa Trend Height
m
Period
s
Dir
29/11:57pm 10.8 NW 41 48 1002.0 - 4.4 - - - - - - -
29/11:30pm 11.9 NNW 27 39 1002.1 - 3.4 - - - - - - -
29/11:00pm 12.2 NNW 28 38 1002.4 - 3.4 - - - - - - -
29/10:48pm 12.5 NNW 30 41 1002.6 - 3.4 - - - - - - -
29/10:30pm 12.0 NNW 30 38 1002.9 - 3.4 - - - - - - -
29/10:00pm 11.8 NNW 31 44 1003.1 - 3.4 - - - - - - -
29/09:30pm 11.9 NW 37 48 1002.9 - 3.4 - - - - - - -
29/09:00pm 11.6 NNW 33 43 1002.8 - 3.4 Recent precip. - - - - - -
29/08:32pm 11.3 NW 40 50 1003.0 - 3.0 - - - - - - -
29/08:30pm 11.3 NW 41 50 1003.0 - 3.0 - - - - - - -
29/08:22pm 11.3 NW 43 49 1003.1 - 2.8 - - - - - - -
29/08:00pm 11.8 NNW 31 44 1003.1 - 2.6 - - - - - - -
29/07:30pm 11.4 NNW 34 47 1002.8 - 2.6 - - - - - - -
29/07:21pm 11.4 NNW 35 47 1002.8 - 2.6 - - - - - - -
29/07:00pm 10.7 NW 35 43 1003.0 - 2.6 - - - - - - -
29/06:45pm 11.8 NW 36 47 1003.1 - 0.4 - - - - - - -
29/06:43pm 11.7 NW 39 47 1002.9 - 0.4 - - - - - - -
29/06:31pm 12.3 NNW 28 40 1002.7 - 0.4 - - - - - - -
29/06:30pm 12.3 NNW 28 37 1002.6 - 0.4 - - - - - - -
29/06:00pm 12.0 NNW 29 41 1003.0 - 0.4 - - - - - - -
29/05:30pm 11.9 NW 33 43 1003.3 - 0.4 - - - - - - -
29/05:00pm 12.0 NNW 36 47 1003.0 - 0.4 - - - - - - -
29/04:33pm 11.0 NW 38 49 1003.2 - 0.4 - - - - - - -
29/04:30pm 10.7 NW 39 48 1003.1 - 0.4 - - - - - - -
29/04:00pm 13.1 NNW 31 44 1002.9 - 0.0 - - - - - - -
29/03:30pm 13.3 NNW 33 43 1003.1 - 0.0 - - - - - - -
29/03:03pm 13.0 NNW 31 41 1003.2 - 0.0 - - - - - - -
29/03:00pm 13.1 NNW 29 36 1003.3 - 0.0 - - - - - - -
29/02:45pm 12.9 NNW 29 41 1003.3 - 0.0 - - - - - - -
29/02:30pm 12.9 NNW 29 37 1003.5 - 0.0 - - - - - - -
29/02:00pm 13.0 NNW 34 45 1003.6 - 0.0 - - - - - - -
29/01:59pm 12.8 NNW 35 45 1003.6 - 0.0 - - - - - - -
29/01:51pm 13.1 NNW 37 41 1003.6 - 0.0 - - - - - - -
29/01:30pm 13.1 NNW 25 35 1004.0 - 0.0 - - - - - - -
29/01:00pm 12.2 NNW 33 43 1004.4 - 0.0 - - - - - - -
29/12:54pm 12.8 NNW 32 43 1004.1 - 0.0 - - - - - - -
29/12:30pm 13.2 NNW 31 40 1004.1 - 0.0 - - - - - - -
29/12:01pm 12.2 NW 31 41 1004.6 - 0.0 - - - - - - -
29/12:00pm 12.5 NW 32 41 1004.6 - 0.0 - - - - - - -
29/11:46am 12.9 NNW 29 39 1004.3 - 0.0 - - - - - - -
29/11:30am 13.6 NNW 29 37 1004.4 - 0.0 - - - - - - -
29/11:00am 13.6 NW 31 39 1004.5 - 0.0 - - - - - - -
29/10:30am 12.6 NW 29 39 1004.1 - 0.0 - - - - - - -
29/10:00am 13.0 NW 29 36 1004.3 - 0.0 - - - - - - -
29/09:30am 12.7 NW 29 39 1004.3 - 0.0 - - - - - - -
29/09:16am 12.2 NW 25 35 1004.3 - 0.0 - - - - - - -
29/09:00am 12.2 NW 27 35 1004.2 - 6.8 - - - - - - -
29/08:51am 12.3 NW 25 35 1004.1 - 6.8 - - - - - - -
29/08:30am 12.0 NW 27 35 1003.9 - 6.8 - - - - - - -
29/08:00am 11.8 WNW 26 33 1003.8 - 6.8 - - - - - - -
29/07:31am 11.4 NW 27 37 1003.1 - 6.8 - - - - - - -
29/07:30am 11.4 NW 27 35 1003.0 - 6.8 - - - - - - -
29/07:00am 11.3 WNW 28 35 1002.8 - 6.8 - - - - - - -
29/06:30am 11.0 WNW 27 33 1002.4 - 6.8 - - - - - - -
29/06:00am 11.3 WNW 25 35 1001.6 - 6.8 Recent precip. - - - - - -
29/05:30am 10.8 WNW 28 34 1001.3 - 6.8 - - - - - - -
29/05:00am 10.5 WNW 28 33 1000.7 - 6.6 - - - - - - -
29/04:30am 10.4 W 27 32 1000.3 - 6.6 - - - - - - -
29/04:11am 11.0 WNW 25 36 999.4 - 5.6 - - - - - - -
29/04:00am 11.1 NW 26 34 999.5 - 5.6 - - - - - - -
29/03:30am 10.7 NW 28 34 999.0 - 5.6 - - - - - - -
29/03:00am 9.9 WNW 25 31 998.3 - 5.6 Recent precip. - - - - - -
29/02:30am 9.5 WNW 28 34 998.0 - 5.6 - - - - - - -
29/02:00am 9.8 WNW 31 39 997.2 - 4.6 - - - - - - -
29/01:31am 10.9 WNW 31 37 996.8 - 2.8 - - - - - - -
29/01:30am 12.6 NW 29 37 996.5 - 2.8 - - - - - - -
29/01:00am 12.8 NNW 25 37 995.9 - 2.8 - - - - - - -
29/12:30am 12.8 NNW 27 40 996.6 - 2.8 - - - - - - -
29/12:04am 12.8 NNW 26 36 997.1 - 2.8 - - - - - - -
29/12:00am 13.0 NNW 27 35 997.2 - 2.8 - - - - - - -
 
Date/Time
EST
Temp

°C
Wind Pressure Rain
since 9am
mm
Weather Cloud Vis
km
Sea
Height
m
Swell
Dir
 
Speed
knots
Gust
knots
hPa Trend Height
m
Period
s
Dir
28/11:42pm 13.0 NNW 27 37 997.3 - 2.8 - - - - - - -
28/11:30pm 12.9 NNW 28 36 997.4 - 2.8 - - - - - - -
28/11:07pm 12.9 NNW 29 39 997.5 - 2.8 - - - - - - -
28/11:00pm 12.9 NNW 26 34 997.5 - 2.8 - - - - - - -
28/10:32pm 12.9 NW 28 38 997.8 - 2.8 - - - - - - -
28/10:30pm 12.8 NW 29 38 997.7 - 2.8 - - - - - - -
28/10:24pm 12.5 NW 28 38 997.8 - 2.8 - - - - - - -
28/10:00pm 12.9 NW 27 33 998.0 - 2.8 - - - - - - -
28/09:30pm 12.8 NW 25 30 998.4 - 2.8 - - - - - - -
28/09:13pm 12.7 NW 25 35 998.3 - 2.8 - - - - - - -
28/09:00pm 12.6 NW 25 31 998.4 - 2.8 - - - - - - -
28/08:30pm 12.6 NNW 25 30 998.6 - 2.8 - - - - - - -
28/08:00pm 12.5 NNW 25 30 998.4 - 2.8 - - - - - - -
28/07:30pm 12.6 NW 27 32 998.0 - 2.8 - - - - - - -
28/07:00pm 13.2 NNW 23 27 997.8 - 2.8 - - - - - - -
28/06:30pm 13.3 NNW 25 30 997.8 - 2.8 - - - - - - -
28/06:00pm 13.4 NW 23 28 997.7 - 2.8 Rain - - - - - -
28/05:30pm 13.4 NNW 22 30 997.7 - 2.2 - - - - - - -
28/05:00pm 13.7 NNW 21 24 997.3 - 0.2 - - - - - - -
28/04:30pm 13.7 NNW 23 28 997.0 - 0.2 - - - - - - -
28/04:00pm 13.7 NW 26 30 996.9 - 0.2 - - - - - - -
28/03:38pm 14.1 NW 31 41 996.6 - 0.0 - - - - - - -
28/03:30pm 14.2 NW 33 40 996.5 - 0.0 - - - - - - -
28/03:04pm 16.0 NW 31 41 996.1 - 0.0 - - - - - - -
28/03:00pm 16.2 NW 31 37 996.1 - 0.0 - - - - - - -
28/02:44pm 17.2 NNW 42 52 995.6 - 0.0 - - - - - - -
28/02:43pm 17.2 NNW 43 52 995.7 - 0.0 - - - - - - -
28/02:30pm 16.5 NW 31 41 995.9 - 0.0 - - - - - - -
28/02:00pm 17.3 NNW 34 47 995.9 - 0.0 - - - - - - -
28/01:30pm 17.6 NNW 37 49 995.6 - 0.0 - - - - - - -
28/01:00pm 18.9 NNW 39 53 995.4 - 0.0 - - - - - - -
28/12:30pm 19.8 NNW 42 61 995.6 - 0.0 - - - - - - -
28/12:00pm 20.2 NNW 43 60 995.9 - 0.0 - - - - - - -
28/11:35am 19.1 NW 42 52 996.5 - 0.0 - - - - - - -
28/11:30am 20.0 NNW 45 52 996.3 - 0.0 - - - - - - -
28/11:29am 20.3 NNW 47 52 996.3 - 0.0 - - - - - - -
28/11:02am 21.7 NNW 36 49 996.6 - 0.0 - - - - - - -
28/11:00am 22.2 NNW 50 61 996.4 - 0.0 - - - - - - -
28/10:30am 22.7 NNW 35 59 996.8 - 0.0 - - - - - - -
28/10:00am 23.1 NNW 37 54 997.0 - 0.0 - - - - - - -
28/09:30am 23.0 NNW 39 55 996.9 - 0.0 - - - - - - -
28/09:00am 23.6 NNW 33 47 997.3 - 0.0 - - - - - - -
28/08:30am 23.1 NNW 37 54 997.6 - 0.0 - - - - - - -
28/08:27am 23.4 NNW 41 54 997.3 - 0.0 - - - - - - -
28/08:08am 22.5 N 29 51 997.8 - 0.0 - - - - - - -
28/08:00am 21.4 N 25 39 998.2 - 0.0 - - - - - - -

Other Formats:

Comma delimited format used in spreadsheet applications
http://www.bom.gov.au/fwo/IDT60701/IDT60701.95961.axf

JavaScript Object Notation format (JSON) in row-major order
http://www.bom.gov.au/fwo/IDT60701/IDT60701.95961.json